Terminal Aerodrome Forecast
Issued by NWS

Home | Current Version | Previous Version | Text Only | Print | Product List | Glossary On
Versions: 1 2 3 4 5 6 7 8 9 10 11 12 13 14 15 16 17 18 19 20 21 22 23 24 25 26 27
858
FTUS46 KMTR 211526 AAB
TAFSFO
TAF AMD
KSFO 211526Z 2115/2218 23011KT P6SM VCSH SCT040 BKN060
     FM212000 26013KT P6SM VCSH SCT030 BKN050
     FM220200 26012KT P6SM SCT020 BKN080
     FM220500 26012KT P6SM SCT020 SCT080
     FM221400 29008KT P6SM SCT030=

USA.gov is the U.S. government's official web portal to all federal, state and local government web resources and services.